x

Mt Desert Rock, Me (mdrm1) Weather Station

12:00 - Wed 27th May 2015 All times are EDT. -4 hours from GMT.

  • Wind
    14mph
  • Ar Temp 49°f
  • Sea Pressure 1019.5mb
  • Mt Desert Rock, Me
  • Mt Desert Rock, Me

More Historic Weather Station data

Upgrade to MSW Pro to gain access to the past 30 days of data for over 8000 Wavebouys and Weather Stations around the globe.

Join Pro

Comparision Forecast

View Surf forecast
   
Qua 05/27 12:00 14
mph
1019.5mb 49f
Ter 05/26 11:00 14 15 mph 1019.3mb 51f
10:00 11 13 mph 1019.1mb 49f
9:00 15 16 mph 1018.6mb 49f
8:00 20 21 mph 1018.2mb 50f
7:00 25 26 mph 1018mb 51f
6:00 26 29 mph 1017.8mb 52f
5:00 25 26 mph 1018mb 52f
4:00 25 26 mph 1018.1mb 52f
3:00 17 18 mph 1018.3mb 50f
2:00 23 25 mph 1018.3mb 50f
1:00 22 24 mph 1018.7mb 50f
12:00 20 22 mph 1019.1mb 49f
11:00 28 30 mph 1018.8mb 50f
10:00 24 26 mph 1019.4mb 50f
9:00 24 25 mph 1019.4mb 49f
8:00 24 25 mph 1019.3mb 50f
7:00 29 30 mph 1019.1mb 49f
6:00 22 23 mph 1019.6mb 49f
5:00 24
mph
1019.5mb 49f
4:00 23 24 mph 1019.4mb 49f
3:00 22 23 mph 1019.6mb 49f
2:00 24 26 mph 1020mb 50f
1:00 22 23 mph 1020.8mb 50f
12:00 23 24 mph 1021mb 49f
Seg 05/25 11:00 18 20 mph 1021.5mb 49f
10:00 20
mph
1021.8mb 50f
9:00 21 22 mph 1021.7mb 50f
8:00 21 22 mph 1021.2mb 50f
7:00 24 25 mph 1021.1mb 51f
6:00 23 24 mph 1021mb 51f
5:00 25 26 mph 1021mb 50f
4:00 25 26 mph 1020.9mb 51f
3:00 23 25 mph 1021mb 49f
2:00 23 24 mph 1021.1mb 49f
1:00 21 22 mph 1021.8mb 49f
12:00 21 22 mph 1021.9mb 49f
11:00 20
mph
1022.2mb 49f
10:00 18
mph
1022.1mb 48f
9:00 21 22 mph 1022.2mb 49f
8:00 21
mph
1022.2mb 48f
7:00 17 18 mph 1021.7mb 49f
6:00 20 21 mph 1021.5mb 48f
5:00 23 24 mph 1020.8mb 51f
4:00 24
mph
1020.5mb 51f
3:00 20
mph
1020.7mb 51f
2:00 21 22 mph 1020.4mb 53f
1:00 21 22 mph 1020.9mb 52f
12:00 26 34 mph 1020.5mb 55f
Dom 05/24 11:00 24 26 mph 1019.6mb 51f
10:00 26 29 mph 1019.2mb 51f
9:00 24 25 mph 1018.8mb 50f
8:00 23 25 mph 1018.2mb 50f
7:00 24
mph
1018mb 50f
6:00 26 29 mph 1018mb 51f
5:00 24 26 mph 1018.4mb 50f
4:00 25 28 mph 1018.4mb 50f
3:00 23 24 mph 1018.6mb 50f
2:00 22 23 mph 1019.2mb 49f
1:00 22 23 mph 1019.8mb 47f
12:00 23 25 mph 1019.8mb 46f
11:00 21 23 mph 1020.5mb 46f
10:00 24 25 mph 1020.4mb 46f
9:00 22 24 mph 1020.6mb 47f
8:00 23 25 mph 1020.4mb 47f
7:00 23 25 mph 1020.5mb 47f
6:00 15 17 mph 1021mb 47f
5:00 22 23 mph 1020.9mb 47f
4:00 23 24 mph 1021.2mb 47f
3:00 24 25 mph 1021.7mb 47f
2:00 22 23 mph 1022mb 46f
1:00 21 22 mph 1022.7mb 45f
12:00 22 23 mph 1022.8mb 46f
Sáb 05/23 11:00 20
mph
1023.3mb 45f
10:00 18
mph
1023.3mb 46f
9:00 20 21 mph 1023.1mb 46f
8:00 18 20 mph 1022.7mb 45f
7:00 16 18 mph 1022.5mb 46f
6:00 21 22 mph 1022.4mb 46f
5:00 24 25 mph 1022.4mb 46f
4:00 14 15 mph 1022.7mb 46f
3:00 15 16 mph 1022.6mb 47f
2:00 20 22 mph 1022.3mb 47f
1:00 16 17 mph 1022mb 46f
12:00 22 24 mph 1021.4mb 45f
11:00 25 29 mph 1021.2mb 44f
10:00 31 36 mph 1020.7mb 43f
9:00 32 34 mph 1020.5mb 42f
8:00 29 32 mph 1020mb 41f
7:00 25 29 mph 1019.6mb 41f
6:00 28 31 mph 1018.8mb 41f